Terminal Aerodrome Forecast
Issued by NWS Upton, NY

Home | Current Version | Previous Version | Text Only | Print | Product List | Glossary On
Versions: 1 2 3 4 5 6 7 8 9 10 11 12 13 14 15 16 17 18 19 20 21 22 23 24 25 26 27 28 29 30 31 32 33
000
FTUS41 KOKX 050500
TAFLGA
TAF
KLGA 050539Z 0506/0606 26010KT 5SM -RA BR OVC035
     FM050700 34008KT 1SM -RASNPL BR SCT008 OVC015
     FM050900 35008KT 1/2SM SN FZFG OVC008
     FM051200 35012G18KT 1SM -SN BR OVC008
     FM051600 35012G18KT 2SM -SN BR SCT008 OVC015
     FM052200 33012KT P6SM BKN020 OVC050=

USA.gov is the U.S. government's official web portal to all federal, state and local government web resources and services.